Time;durP1;ratioP1;P1;durP2;ratioP2;P2;SDS_P1;SDS_P2;PMS_P1;PMS_P2;Temp;Humidity;BMP_temperature;BMP_pressure;BME280_temperature;BME280_humidity;BME280_pressure;Samples;Min_cycle;Max_cycle;Signal;HPM_P1;HPM_P2
2022/03/27 00:02:22;;;;;;;12.40;9.77;;;6.90;99.90;;;;;;5066644;28;20042;-72
2022/03/27 00:04:48;;;;;;;12.43;9.70;;;6.90;99.90;;;;;;5077805;28;20043;-74
2022/03/27 00:07:14;;;;;;;11.65;9.38;;;6.90;99.90;;;;;;5067325;28;20565;-72
2022/03/27 00:09:40;;;;;;;13.75;9.77;;;6.90;99.90;;;;;;5098343;28;20039;-72
2022/03/27 00:12:06;;;;;;;12.60;10.00;;;6.90;99.90;;;;;;5083869;28;20456;-72
2022/03/27 00:14:32;;;;;;;12.80;10.13;;;6.90;99.90;;;;;;5081008;28;20059;-72
2022/03/27 00:16:58;;;;;;;13.57;10.02;;;6.90;99.90;;;;;;5115187;27;20061;-72
2022/03/27 00:19:24;;;;;;;15.15;11.10;;;6.90;99.90;;;;;;5084301;28;20048;-72
2022/03/27 00:21:50;;;;;;;15.73;10.43;;;6.90;99.90;;;;;;5050986;28;20390;-72
2022/03/27 00:24:16;;;;;;;13.43;11.50;;;6.90;99.90;;;;;;5085081;28;20120;-72
2022/03/27 00:26:42;;;;;;;15.57;11.45;;;6.90;99.90;;;;;;5067668;28;20047;-72
2022/03/27 00:29:08;;;;;;;15.20;11.40;;;6.90;99.90;;;;;;5067379;28;20051;-72
2022/03/27 00:31:38;;;;;;;13.38;10.18;;;6.90;99.90;;;;;;5066656;28;20051;-72
2022/03/27 00:34:05;;;;;;;13.20;11.07;;;6.90;99.90;;;;;;5068241;28;20202;-73
2022/03/27 00:36:31;;;;;;;14.85;10.68;;;6.90;99.90;;;;;;5069680;28;20616;-73
2022/03/27 00:38:57;;;;;;;12.90;10.18;;;6.90;99.90;;;;;;5066787;28;20166;-73
2022/03/27 00:41:30;;;;;;;14.55;11.40;;;6.90;99.90;;;;;;5084538;28;20581;-73
2022/03/27 00:43:56;;;;;;;20.52;12.35;;;6.90;99.90;;;;;;5084299;28;20199;-72
2022/03/27 00:46:22;;;;;;;14.95;10.80;;;6.90;99.90;;;;;;5084039;28;20047;-73
2022/03/27 00:48:48;;;;;;;24.75;19.75;;;6.90;99.90;;;;;;5066691;28;20054;-73
2022/03/27 00:51:14;;;;;;;19.33;14.48;;;6.90;99.90;;;;;;5084525;28;20066;-73
2022/03/27 00:53:39;;;;;;;18.10;14.95;;;6.90;99.90;;;;;;5067065;28;20506;-75
2022/03/27 00:56:05;;;;;;;19.95;16.17;;;6.90;99.90;;;;;;5050996;28;20429;-73
2022/03/27 00:58:31;;;;;;;19.73;16.38;;;6.90;99.90;;;;;;5068221;28;20051;-75
2022/03/27 01:01:03;;;;;;;18.98;15.05;;;6.90;99.90;;;;;;5067632;28;20043;-74
2022/03/27 01:03:32;;;;;;;18.40;15.35;;;6.90;99.90;;;;;;5083709;28;20048;-73
2022/03/27 01:05:58;;;;;;;20.52;16.55;;;6.90;99.90;;;;;;5085648;28;20126;-74
2022/03/27 01:11:20;;;;;;;20.05;17.27;;;6.90;99.90;;;;;;5116867;27;20047;-75
2022/03/27 01:13:57;;;;;;;19.65;16.17;;;6.90;99.90;;;;;;5067955;28;20138;-75
2022/03/27 01:16:42;;;;;;;20.25;16.77;;;6.90;99.90;;;;;;5084388;28;20405;-74
2022/03/27 01:19:11;;;;;;;18.88;15.20;;;6.90;99.90;;;;;;5066393;28;20083;-75
2022/03/27 01:21:40;;;;;;;16.60;13.95;;;6.90;99.90;;;;;;5066337;28;20119;-74
2022/03/27 01:24:08;;;;;;;15.10;13.48;;;6.90;99.90;;;;;;5084186;28;20051;-74
2022/03/27 01:26:34;;;;;;;16.50;14.52;;;6.90;99.90;;;;;;5066879;28;20062;-72
2022/03/27 01:29:00;;;;;;;18.67;14.80;;;6.90;99.90;;;;;;5066324;28;20253;-71
2022/03/27 01:31:26;;;;;;;19.25;14.50;;;6.90;99.90;;;;;;5067396;28;20269;-74
2022/03/27 01:33:52;;;;;;;17.08;13.63;;;6.90;99.90;;;;;;5083717;28;20162;-71
2022/03/27 01:36:34;;;;;;;15.85;13.77;;;7.00;99.90;;;;;;5072504;28;20028;-72
2022/03/27 01:39:04;;;;;;;16.85;13.23;;;7.00;99.90;;;;;;5066798;28;20112;-72
2022/03/27 01:41:29;;;;;;;16.48;13.32;;;6.90;99.90;;;;;;5083097;28;20085;-72
2022/03/27 01:43:56;;;;;;;14.88;12.52;;;6.90;99.90;;;;;;5083548;28;20476;-73
2022/03/27 01:46:22;;;;;;;15.88;12.75;;;6.90;99.90;;;;;;5066116;28;20032;-73
2022/03/27 01:48:48;;;;;;;16.10;12.88;;;7.00;99.90;;;;;;5080954;28;20079;-72
2022/03/27 01:51:14;;;;;;;16.13;12.45;;;7.00;99.90;;;;;;5063998;28;20124;-73
2022/03/27 01:53:40;;;;;;;17.10;12.70;;;6.90;99.90;;;;;;5064212;28;20052;-74
2022/03/27 01:56:08;;;;;;;17.00;12.25;;;6.90;99.90;;;;;;5081726;28;20108;-74
2022/03/27 01:58:40;;;;;;;14.25;12.48;;;6.90;99.90;;;;;;5084419;28;20051;-74
2022/03/27 02:01:07;;;;;;;17.38;11.90;;;6.90;99.90;;;;;;5084370;28;20115;-74
2022/03/27 02:03:33;;;;;;;13.18;10.60;;;6.90;99.90;;;;;;5087720;28;20058;-73
2022/03/27 02:05:59;;;;;;;13.65;11.20;;;6.90;99.90;;;;;;5086151;28;20047;-73
2022/03/27 02:08:28;;;;;;;17.45;14.13;;;6.80;99.90;;;;;;5081318;28;20040;-74
2022/03/27 02:10:54;;;;;;;18.60;14.93;;;6.90;99.90;;;;;;5069544;28;20093;-74
2022/03/27 02:13:21;;;;;;;18.80;14.98;;;6.80;99.90;;;;;;5088255;28;20074;-74
2022/03/27 02:15:48;;;;;;;21.20;16.00;;;6.80;99.90;;;;;;5068444;28;20059;-74
2022/03/27 02:18:15;;;;;;;19.73;15.18;;;6.70;99.90;;;;;;5088406;28;20105;-74
2022/03/27 02:20:44;;;;;;;21.30;15.70;;;6.70;99.90;;;;;;5088030;28;20071;-74
2022/03/27 02:23:13;;;;;;;21.63;16.13;;;6.70;99.90;;;;;;5071461;28;20534;-74
2022/03/27 02:25:40;;;;;;;19.58;14.43;;;6.60;99.90;;;;;;5088929;28;20144;-75
2022/03/27 02:28:07;;;;;;;18.77;15.18;;;6.60;99.90;;;;;;5064306;28;20677;-73
2022/03/27 02:30:33;;;;;;;17.23;14.02;;;6.50;99.90;;;;;;5105312;28;20055;-74
2022/03/27 02:32:59;;;;;;;18.98;14.80;;;6.50;99.90;;;;;;5088682;28;20060;-75
2022/03/27 02:35:24;;;;;;;23.30;15.85;;;6.50;99.90;;;;;;5056482;28;20044;-74
2022/03/27 02:37:51;;;;;;;22.75;15.18;;;6.50;99.90;;;;;;5061464;28;20112;-74
2022/03/27 02:40:16;;;;;;;19.77;13.52;;;6.50;99.90;;;;;;5071270;28;20145;-74
2022/03/27 02:42:42;;;;;;;20.73;16.17;;;6.40;99.90;;;;;;5105792;27;20117;-74
2022/03/27 02:45:09;;;;;;;27.95;16.42;;;6.50;99.90;;;;;;5073083;28;20035;-73
2022/03/27 02:47:36;;;;;;;23.10;17.08;;;6.40;99.90;;;;;;5120984;27;20059;-73
2022/03/27 02:50:04;;;;;;;26.08;17.88;;;6.40;99.90;;;;;;5084911;28;20051;-73
2022/03/27 02:52:30;;;;;;;23.48;16.13;;;6.40;99.90;;;;;;5073079;28;20047;-74
2022/03/27 02:54:57;;;;;;;23.67;15.27;;;6.40;99.90;;;;;;5070773;28;20050;-74
2022/03/27 02:57:23;;;;;;;22.52;15.85;;;6.40;99.90;;;;;;5087806;28;20456;-73
2022/03/27 02:59:52;;;;;;;24.30;16.73;;;6.40;99.90;;;;;;5052708;28;20044;-74
2022/03/27 03:02:19;;;;;;;23.40;15.43;;;6.40;99.90;;;;;;5069969;28;20087;-74
2022/03/27 03:04:45;;;;;;;22.00;14.73;;;6.40;99.90;;;;;;5084381;28;20055;-74
2022/03/27 03:07:11;;;;;;;23.85;15.98;;;6.40;99.90;;;;;;5086058;28;20035;-74
2022/03/27 03:09:37;;;;;;;26.73;16.92;;;6.40;99.90;;;;;;5084830;28;20212;-72
2022/03/27 03:12:04;;;;;;;23.42;15.38;;;6.50;99.90;;;;;;5069362;28;20035;-72
2022/03/27 03:14:30;;;;;;;24.27;16.45;;;6.40;99.90;;;;;;5068750;28;20051;-73
2022/03/27 03:16:56;;;;;;;28.77;17.15;;;6.40;99.90;;;;;;5052902;28;20513;-72
2022/03/27 03:19:22;;;;;;;26.75;17.30;;;6.40;99.90;;;;;;5086170;28;20101;-73
2022/03/27 03:21:48;;;;;;;27.25;17.30;;;6.40;99.90;;;;;;5068998;28;20640;-72
2022/03/27 03:24:14;;;;;;;27.58;16.40;;;6.40;99.90;;;;;;5069166;28;20096;-72
2022/03/27 03:26:40;;;;;;;30.13;17.33;;;6.40;99.90;;;;;;5084700;28;20052;-71
2022/03/27 03:29:06;;;;;;;32.58;19.25;;;6.40;99.90;;;;;;5069205;28;20139;-72
2022/03/27 03:31:31;;;;;;;29.83;18.38;;;6.40;99.90;;;;;;5086411;28;20052;-73
2022/03/27 03:33:58;;;;;;;29.70;18.80;;;6.40;99.90;;;;;;5085136;28;20053;-73
2022/03/27 03:36:23;;;;;;;31.55;19.52;;;6.30;99.90;;;;;;5068761;28;20580;-72
2022/03/27 03:38:49;;;;;;;32.20;20.13;;;6.30;99.90;;;;;;5085427;28;20044;-74
2022/03/27 03:41:17;;;;;;;34.05;19.77;;;6.30;99.90;;;;;;5084456;28;20665;-73
2022/03/27 03:43:43;;;;;;;28.48;18.48;;;6.30;99.90;;;;;;5085631;28;20054;-73
2022/03/27 03:46:09;;;;;;;30.77;18.17;;;6.30;99.90;;;;;;5085424;28;20035;-72
2022/03/27 03:48:35;;;;;;;28.25;17.08;;;6.20;99.90;;;;;;5051954;28;20051;-72
2022/03/27 03:51:00;;;;;;;32.58;17.88;;;6.20;99.90;;;;;;5085236;28;20551;-72
2022/03/27 03:53:27;;;;;;;27.58;17.55;;;6.10;99.90;;;;;;5085500;28;20048;-72
2022/03/27 03:55:53;;;;;;;28.40;16.15;;;6.20;99.90;;;;;;5085738;28;20035;-72
2022/03/27 03:58:19;;;;;;;27.02;16.55;;;6.20;99.90;;;;;;5085328;28;20511;-73
2022/03/27 04:00:46;;;;;;;27.63;15.43;;;6.30;99.90;;;;;;5065154;28;20047;-73
2022/03/27 04:03:13;;;;;;;28.55;15.52;;;6.20;99.90;;;;;;5083587;28;20145;-73
2022/03/27 04:05:39;;;;;;;27.95;15.02;;;6.20;99.90;;;;;;5069563;28;20062;-72
2022/03/27 04:08:05;;;;;;;27.40;14.60;;;6.30;99.90;;;;;;5069735;28;20047;-73
2022/03/27 04:10:30;;;;;;;27.75;14.57;;;6.20;99.90;;;;;;5048970;28;20044;-72
2022/03/27 04:12:57;;;;;;;27.27;14.52;;;6.20;99.90;;;;;;5049813;28;20055;-73
2022/03/27 04:15:23;;;;;;;32.47;15.25;;;6.30;99.90;;;;;;5067195;28;20035;-73
2022/03/27 04:17:50;;;;;;;30.48;14.57;;;6.30;99.90;;;;;;5087073;28;20051;-72
2022/03/27 04:20:16;;;;;;;28.42;14.50;;;6.20;99.90;;;;;;5086350;28;20116;-73
2022/03/27 04:22:44;;;;;;;30.90;15.02;;;6.30;99.90;;;;;;5104782;28;20055;-73
2022/03/27 04:25:11;;;;;;;30.38;15.45;;;6.30;99.90;;;;;;5081974;28;20522;-72
2022/03/27 04:27:37;;;;;;;33.08;15.02;;;6.30;99.90;;;;;;5084373;28;20067;-72
2022/03/27 04:30:08;;;;;;;27.45;15.00;;;6.30;99.90;;;;;;5067101;28;20040;-72
2022/03/27 04:32:34;;;;;;;32.45;15.75;;;6.30;99.90;;;;;;5084049;28;20509;-72
2022/03/27 04:35:01;;;;;;;27.50;14.05;;;6.30;99.90;;;;;;5066724;28;20055;-72
2022/03/27 04:37:27;;;;;;;27.27;14.20;;;6.30;99.90;;;;;;5067248;28;20535;-71
2022/03/27 04:39:54;;;;;;;23.02;13.48;;;6.30;99.90;;;;;;5082009;28;20288;-72
2022/03/27 04:42:20;;;;;;;35.90;15.02;;;6.40;99.90;;;;;;5049747;28;20036;-71
2022/03/27 04:44:46;;;;;;;35.05;17.02;;;6.40;99.90;;;;;;5082755;28;20191;-72
2022/03/27 04:47:12;;;;;;;31.75;15.70;;;6.40;99.90;;;;;;5083063;28;20097;-72
2022/03/27 04:49:37;;;;;;;28.65;14.63;;;6.50;99.90;;;;;;5066231;28;20125;-72
2022/03/27 04:52:03;;;;;;;29.50;14.90;;;6.50;99.90;;;;;;5065601;28;20040;-71
2022/03/27 04:54:31;;;;;;;33.40;16.23;;;6.50;99.90;;;;;;5082871;28;20050;-72
2022/03/27 04:56:57;;;;;;;30.85;15.80;;;6.50;99.90;;;;;;5082048;28;20070;-73
2022/03/27 04:59:23;;;;;;;30.27;14.93;;;6.50;99.90;;;;;;5082731;28;20047;-72
2022/03/27 05:01:49;;;;;;;33.33;15.20;;;6.50;99.90;;;;;;5064668;28;20059;-72
2022/03/27 05:04:14;;;;;;;31.42;14.57;;;6.50;99.90;;;;;;5066243;28;20044;-72
2022/03/27 05:06:40;;;;;;;33.67;16.45;;;6.50;99.90;;;;;;5049711;28;20581;-71
2022/03/27 05:09:06;;;;;;;31.92;16.83;;;6.50;99.90;;;;;;5081485;28;20048;-72
2022/03/27 05:11:32;;;;;;;36.08;18.45;;;6.50;99.90;;;;;;5083104;28;20055;-71
2022/03/27 05:13:58;;;;;;;36.38;18.23;;;6.50;99.90;;;;;;5082595;28;20044;-71
2022/03/27 05:16:23;;;;;;;37.85;18.40;;;6.50;99.90;;;;;;5065088;28;20048;-71
2022/03/27 05:18:49;;;;;;;38.15;18.17;;;6.50;99.90;;;;;;5065506;28;20118;-72
2022/03/27 05:21:15;;;;;;;36.05;18.23;;;6.60;99.90;;;;;;5066014;28;20044;-71
2022/03/27 05:23:42;;;;;;;37.75;18.92;;;6.50;99.90;;;;;;5066136;28;20047;-72
2022/03/27 05:26:08;;;;;;;39.00;18.10;;;6.50;99.90;;;;;;5081979;28;20487;-71
2022/03/27 05:28:34;;;;;;;46.03;20.30;;;6.60;99.90;;;;;;5082706;28;20124;-71
2022/03/27 05:31:08;;;;;;;42.95;18.23;;;6.60;99.90;;;;;;5073680;28;20498;-71
2022/03/27 05:33:36;;;;;;;36.03;17.73;;;6.60;99.90;;;;;;5045265;28;20044;-71
2022/03/27 05:36:07;;;;;;;39.75;17.75;;;6.60;99.90;;;;;;5036509;28;20048;-72
2022/03/27 05:38:35;;;;;;;37.92;17.25;;;6.50;99.90;;;;;;5079861;28;20048;-72
2022/03/27 05:41:01;;;;;;;36.92;16.77;;;6.50;99.90;;;;;;5081934;28;20051;-72
2022/03/27 05:43:27;;;;;;;45.17;19.23;;;6.50;99.90;;;;;;5065146;28;20047;-72
2022/03/27 05:45:53;;;;;;;42.03;16.85;;;6.60;99.90;;;;;;5065148;28;20048;-72
2022/03/27 05:48:20;;;;;;;47.83;20.63;;;6.60;99.90;;;;;;5079545;28;20043;-72
2022/03/27 05:50:46;;;;;;;35.90;17.73;;;6.60;99.90;;;;;;5081565;28;20040;-72
2022/03/27 05:53:12;;;;;;;41.25;18.58;;;6.60;99.90;;;;;;5032071;28;20048;-72
2022/03/27 05:55:38;;;;;;;42.17;16.33;;;6.60;99.90;;;;;;5045221;28;20117;-72
2022/03/27 05:58:04;;;;;;;38.35;19.20;;;6.60;99.90;;;;;;5057954;28;20059;-72
2022/03/27 06:00:30;;;;;;;39.78;17.85;;;6.60;99.90;;;;;;5065309;28;20048;-72
2022/03/27 06:02:56;;;;;;;40.72;17.40;;;6.60;99.90;;;;;;5082020;28;20096;-72
2022/03/27 06:05:28;;;;;;;43.05;16.10;;;6.60;99.90;;;;;;5063912;28;20047;-72
2022/03/27 06:07:58;;;;;;;45.05;17.00;;;6.60;99.90;;;;;;5080664;28;20570;-72
2022/03/27 06:10:31;;;;;;;39.13;17.23;;;6.60;99.90;;;;;;5077576;28;20048;-72
2022/03/27 06:12:57;;;;;;;48.53;17.45;;;6.60;99.90;;;;;;5045898;28;20048;-72
2022/03/27 06:15:23;;;;;;;42.38;17.52;;;6.60;99.90;;;;;;5046649;28;20098;-72
2022/03/27 06:17:50;;;;;;;39.97;14.63;;;6.60;99.90;;;;;;5080888;28;20055;-72
2022/03/27 06:20:20;;;;;;;47.50;17.35;;;6.50;99.90;;;;;;5066037;28;20083;-72
2022/03/27 06:22:47;;;;;;;41.28;16.00;;;6.50;99.90;;;;;;5062416;28;20345;-72
2022/03/27 06:25:18;;;;;;;54.03;17.55;;;6.50;99.90;;;;;;5062667;28;20067;-72
2022/03/27 06:27:45;;;;;;;41.75;17.15;;;6.50;99.90;;;;;;5062649;28;20056;-74
2022/03/27 06:30:15;;;;;;;51.17;16.90;;;6.50;99.90;;;;;;5045625;28;20036;-74
2022/03/27 06:32:45;;;;;;;50.65;16.27;;;6.50;99.90;;;;;;5062774;28;20089;-73
2022/03/27 06:35:12;;;;;;;45.28;15.23;;;6.50;99.90;;;;;;5062003;28;20495;-73
2022/03/27 06:37:39;;;;;;;47.60;13.75;;;6.60;99.90;;;;;;5072642;28;20138;-74
2022/03/27 06:40:07;;;;;;;49.17;13.88;;;6.50;99.90;;;;;;5081195;28;20327;-74
2022/03/27 06:42:33;;;;;;;42.38;13.45;;;6.60;99.90;;;;;;5081202;28;20521;-73
2022/03/27 06:44:59;;;;;;;46.00;14.18;;;6.60;99.90;;;;;;5064859;28;20120;-75
2022/03/27 06:47:27;;;;;;;49.67;16.80;;;6.60;99.90;;;;;;5069045;28;20159;-74
2022/03/27 06:49:54;;;;;;;59.25;17.08;;;6.60;99.90;;;;;;5068681;28;20091;-74
2022/03/27 06:52:21;;;;;;;52.67;16.70;;;6.50;99.90;;;;;;5084820;28;20506;-74
2022/03/27 06:54:47;;;;;;;50.90;15.85;;;6.50;99.90;;;;;;5068887;28;20162;-74
2022/03/27 06:57:14;;;;;;;50.97;16.17;;;6.60;99.90;;;;;;5083447;28;20131;-74
2022/03/27 07:05:15;;;;;;;44.97;15.60;;;6.60;99.90;;;;;;5081335;28;20047;-74
2022/03/27 07:07:44;;;;;;;52.53;14.82;;;6.60;99.90;;;;;;5067049;28;20070;-73
2022/03/27 07:10:11;;;;;;;51.17;14.98;;;6.70;99.90;;;;;;5081081;28;20079;-73
2022/03/27 07:12:38;;;;;;;55.35;15.93;;;6.70;99.90;;;;;;5063962;28;20506;-73
2022/03/27 07:15:05;;;;;;;54.47;16.70;;;6.70;99.90;;;;;;5082840;28;20043;-72
2022/03/27 07:17:31;;;;;;;57.45;14.13;;;6.70;99.90;;;;;;5067919;28;20051;-72
2022/03/27 07:19:57;;;;;;;43.70;13.77;;;6.70;99.90;;;;;;5084457;28;20048;-73
2022/03/27 07:22:23;;;;;;;53.53;14.40;;;6.70;99.90;;;;;;5051636;28;20630;-72
2022/03/27 07:24:50;;;;;;;49.55;14.75;;;6.70;99.90;;;;;;5069870;28;20050;-72
2022/03/27 07:27:16;;;;;;;46.90;14.10;;;6.70;99.90;;;;;;5070265;28;20560;-72
2022/03/27 07:29:42;;;;;;;51.22;14.25;;;6.70;99.90;;;;;;5087857;28;20077;-72
2022/03/27 07:32:08;;;;;;;50.92;15.32;;;6.70;99.90;;;;;;5087975;28;20043;-72
2022/03/27 07:34:35;;;;;;;49.10;13.65;;;6.70;99.90;;;;;;5070908;28;20061;-72
2022/03/27 07:37:03;;;;;;;42.33;13.20;;;6.70;99.90;;;;;;5070324;28;20042;-72
2022/03/27 07:39:30;;;;;;;45.20;13.50;;;6.80;99.90;;;;;;5084191;28;20050;-74
2022/03/27 07:41:56;;;;;;;46.97;13.88;;;6.90;99.90;;;;;;5084711;28;20074;-71
2022/03/27 07:44:22;;;;;;;46.58;12.65;;;6.80;99.90;;;;;;5068953;28;20497;-73
2022/03/27 07:46:49;;;;;;;43.70;12.25;;;6.80;99.90;;;;;;5086200;28;20196;-73
2022/03/27 07:49:16;;;;;;;45.65;13.00;;;6.90;99.90;;;;;;5085774;28;20043;-72
2022/03/27 07:51:42;;;;;;;50.05;15.20;;;6.90;99.90;;;;;;5086030;28;20055;-73
2022/03/27 07:54:08;;;;;;;41.08;12.85;;;7.00;99.90;;;;;;5101599;27;20162;-73
2022/03/27 07:56:34;;;;;;;48.08;14.65;;;7.00;99.90;;;;;;5085485;28;20569;-73
2022/03/27 07:59:00;;;;;;;40.85;13.45;;;7.00;99.90;;;;;;5050474;28;20099;-73
2022/03/27 08:01:27;;;;;;;46.05;12.10;;;7.00;99.90;;;;;;5085920;28;20109;-73
2022/03/27 08:03:56;;;;;;;37.78;11.90;;;7.00;99.90;;;;;;5068775;28;20387;-73
2022/03/27 08:06:36;;;;;;;37.25;11.35;;;7.00;99.90;;;;;;5087768;28;20043;-73
2022/03/27 08:09:03;;;;;;;42.47;11.93;;;7.10;99.90;;;;;;5087433;28;20059;-72
2022/03/27 08:11:29;;;;;;;34.95;10.98;;;7.00;99.90;;;;;;5086645;28;20119;-73
2022/03/27 08:13:56;;;;;;;35.30;11.05;;;7.00;99.90;;;;;;5102991;27;20043;-72
2022/03/27 08:16:22;;;;;;;32.78;9.55;;;7.10;99.90;;;;;;5036998;28;20047;-72
2022/03/27 08:18:47;;;;;;;41.15;11.10;;;7.20;99.90;;;;;;5068460;28;20058;-73
2022/03/27 08:21:13;;;;;;;43.65;11.43;;;7.10;99.90;;;;;;5084759;28;20471;-72
2022/03/27 08:23:39;;;;;;;39.42;10.98;;;7.20;99.90;;;;;;5073283;28;20427;-73
2022/03/27 08:28:49;;;;;;;35.63;11.18;;;7.60;99.90;;;;;;5070534;28;20484;-73
2022/03/27 08:31:15;;;;;;;42.33;11.00;;;7.90;99.90;;;;;;5050658;28;20218;-74
2022/03/27 08:33:41;;;;;;;40.40;11.38;;;8.20;99.90;;;;;;5066466;28;20047;-73
2022/03/27 08:36:06;;;;;;;31.42;9.57;;;8.50;99.90;;;;;;5080417;28;20097;-74
2022/03/27 08:38:32;;;;;;;35.85;10.10;;;8.80;99.90;;;;;;5084710;28;20092;-74
2022/03/27 08:41:01;;;;;;;34.67;9.38;;;9.00;99.90;;;;;;5081472;28;20047;-73
2022/03/27 08:43:32;;;;;;;35.38;9.68;;;9.20;99.90;;;;;;5083073;28;20105;-73
2022/03/27 08:45:58;;;;;;;37.20;9.38;;;9.30;99.90;;;;;;5064915;28;20543;-72
2022/03/27 08:48:24;;;;;;;36.92;8.80;;;9.50;99.90;;;;;;5081187;28;20083;-72
2022/03/27 08:51:19;;;;;;;35.70;9.18;;;9.60;99.90;;;;;;5066609;28;20118;-73
2022/03/27 08:53:59;;;;;;;40.17;9.40;;;9.60;99.90;;;;;;5046525;28;20085;-72
2022/03/27 08:56:26;;;;;;;36.38;9.05;;;9.50;99.90;;;;;;5084343;28;20108;-73
2022/03/27 08:58:58;;;;;;;38.88;9.55;;;9.60;99.90;;;;;;5062516;28;20093;-72
2022/03/27 09:01:24;;;;;;;36.92;9.85;;;9.70;99.90;;;;;;5075830;28;20047;-72
2022/03/27 09:03:50;;;;;;;37.42;10.40;;;9.80;99.90;;;;;;5062723;28;20051;-72
2022/03/27 09:06:16;;;;;;;30.98;9.07;;;9.90;99.90;;;;;;5063134;28;20043;-72
2022/03/27 09:08:42;;;;;;;31.88;9.40;;;10.00;99.90;;;;;;5064091;28;20043;-72
2022/03/27 09:11:15;;;;;;;36.22;8.82;;;10.30;99.90;;;;;;5065813;28;20104;-72
2022/03/27 09:13:45;;;;;;;30.63;8.15;;;10.40;99.90;;;;;;5064470;28;20047;-73
2022/03/27 09:16:12;;;;;;;36.05;10.15;;;10.40;99.90;;;;;;5081661;28;20047;-72
2022/03/27 09:19:00;;;;;;;30.73;8.15;;;10.40;99.90;;;;;;5048405;28;20100;-73
2022/03/27 09:21:27;;;;;;;36.15;9.65;;;10.70;99.90;;;;;;5062207;28;20044;-72
2022/03/27 09:23:59;;;;;;;35.15;9.18;;;10.50;99.90;;;;;;5080022;28;20051;-72
2022/03/27 09:26:25;;;;;;;30.42;8.13;;;10.60;99.90;;;;;;5080652;28;20051;-72
2022/03/27 09:28:54;;;;;;;27.63;7.53;;;10.80;99.90;;;;;;5063060;28;20529;-73
2022/03/27 09:31:22;;;;;;;35.20;8.43;;;10.80;99.90;;;;;;5077144;28;20108;-72
2022/03/27 09:34:00;;;;;;;25.38;7.68;;;10.90;99.90;;;;;;5063483;28;20247;-73
2022/03/27 09:36:32;;;;;;;32.22;7.78;;;11.00;99.90;;;;;;5064700;28;20039;-72
2022/03/27 09:39:22;;;;;;;29.80;8.57;;;11.10;99.90;;;;;;5080977;28;20533;-72
2022/03/27 09:42:00;;;;;;;35.20;8.20;;;11.30;99.90;;;;;;5079576;28;20169;-72
2022/03/27 09:44:34;;;;;;;26.00;7.50;;;11.50;99.90;;;;;;5081312;28;20063;-73
2022/03/27 09:47:04;;;;;;;28.63;7.82;;;11.50;99.90;;;;;;5077492;28;20053;-73
2022/03/27 09:49:37;;;;;;;27.58;7.53;;;11.50;99.90;;;;;;5081983;28;20486;-73
2022/03/27 09:52:19;;;;;;;31.80;8.52;;;11.60;99.90;;;;;;5075682;28;20387;-72
2022/03/27 09:54:57;;;;;;;31.52;7.35;;;11.70;99.90;;;;;;5114598;28;20032;-74
2022/03/27 09:57:24;;;;;;;31.50;7.32;;;11.80;99.90;;;;;;5073397;28;20110;-71
2022/03/27 09:59:51;;;;;;;27.05;7.30;;;11.80;99.90;;;;;;5079529;28;20131;-73
2022/03/27 10:02:30;;;;;;;31.25;6.97;;;11.90;99.90;;;;;;5058559;28;20052;-73
2022/03/27 10:04:57;;;;;;;33.60;8.60;;;12.00;99.90;;;;;;5108715;28;20055;-73
2022/03/27 10:07:25;;;;;;;23.92;5.90;;;12.10;99.90;;;;;;5069655;28;20303;-75
2022/03/27 10:09:55;;;;;;;24.33;6.88;;;12.10;99.90;;;;;;5080123;28;20042;-75
2022/03/27 10:12:34;;;;;;;27.48;8.07;;;12.10;99.90;;;;;;5080228;28;20089;-75
2022/03/27 10:15:06;;;;;;;23.48;5.78;;;12.10;99.90;;;;;;5075323;28;20123;-75
2022/03/27 10:17:34;;;;;;;29.27;6.78;;;12.20;99.90;;;;;;5061291;28;20494;-75
2022/03/27 10:20:06;;;;;;;26.70;6.25;;;12.30;99.50;;;;;;5099829;28;20057;-75
2022/03/27 10:22:35;;;;;;;28.65;7.32;;;12.40;99.90;;;;;;5092176;28;20478;-75
2022/03/27 10:25:03;;;;;;;23.33;5.80;;;12.50;99.90;;;;;;5057908;28;20139;-76
2022/03/27 10:27:33;;;;;;;22.73;6.28;;;12.70;99.90;;;;;;5065847;28;21021;-76
2022/03/27 10:29:59;;;;;;;23.33;6.55;;;12.90;99.40;;;;;;5060144;28;20039;-75
2022/03/27 10:32:26;;;;;;;24.27;6.68;;;12.90;98.30;;;;;;5083984;28;20043;-77
2022/03/27 10:35:14;;;;;;;21.83;6.03;;;12.90;98.70;;;;;;5120137;27;20427;-77
2022/03/27 10:38:16;;;;;;;23.73;6.13;;;13.00;97.80;;;;;;5086218;28;20055;-76
2022/03/27 10:41:24;;;;;;;24.35;7.18;;;13.10;95.70;;;;;;5067469;28;20048;-77
2022/03/27 10:44:12;;;;;;;25.00;6.63;;;13.20;95.20;;;;;;5046441;28;20056;-77
2022/03/27 10:46:38;;;;;;;20.63;6.15;;;13.20;96.80;;;;;;5043559;28;20124;-76
2022/03/27 10:49:17;;;;;;;27.38;7.65;;;13.30;95.40;;;;;;5051722;28;20093;-77
2022/03/27 10:51:46;;;;;;;27.83;7.53;;;13.40;94.80;;;;;;5087400;28;20071;-77
2022/03/27 10:54:19;;;;;;;25.95;6.68;;;13.40;92.30;;;;;;5070010;28;20040;-77
2022/03/27 10:56:48;;;;;;;22.95;6.57;;;13.30;94.10;;;;;;5062932;28;20155;-77
2022/03/27 10:59:20;;;;;;;22.23;7.07;;;13.40;94.30;;;;;;5066025;28;20075;-76
2022/03/27 11:01:54;;;;;;;24.90;7.75;;;13.60;94.20;;;;;;5062137;28;20048;-76
2022/03/27 11:04:23;;;;;;;24.23;6.57;;;13.70;94.00;;;;;;5069572;28;20825;-73
2022/03/27 11:06:51;;;;;;;30.42;7.45;;;13.80;94.40;;;;;;5086204;28;20552;-73
2022/03/27 11:09:35;;;;;;;26.25;7.25;;;13.90;93.90;;;;;;5068363;28;20056;-71
2022/03/27 11:12:04;;;;;;;25.85;6.22;;;13.80;93.90;;;;;;5068991;28;20558;-71
2022/03/27 11:14:52;;;;;;;27.63;6.32;;;13.90;91.10;;;;;;5067581;28;20040;-72
2022/03/27 11:17:30;;;;;;;21.52;6.15;;;13.90;89.80;;;;;;5077816;28;20494;-72
2022/03/27 11:19:56;;;;;;;24.30;6.65;;;14.00;90.40;;;;;;5114783;27;20047;-72
2022/03/27 11:22:44;;;;;;;19.70;5.97;;;14.10;88.60;;;;;;5081246;28;20368;-72
2022/03/27 11:25:44;;;;;;;23.77;5.75;;;14.20;89.60;;;;;;5078487;28;20063;-71
2022/03/27 11:28:18;;;;;;;23.27;6.03;;;14.30;89.70;;;;;;5081010;28;20062;-72
2022/03/27 11:30:49;;;;;;;21.42;4.97;;;14.50;83.50;;;;;;5084237;28;20509;-70
2022/03/27 11:33:16;;;;;;;24.77;6.18;;;14.60;79.10;;;;;;5064776;28;20192;-72
2022/03/27 11:36:08;;;;;;;23.85;5.90;;;14.60;77.20;;;;;;5083199;28;20066;-72
2022/03/27 11:38:58;;;;;;;22.27;5.25;;;14.60;75.30;;;;;;5083270;28;20048;-72
2022/03/27 11:41:38;;;;;;;18.55;5.07;;;14.50;79.00;;;;;;5066970;28;20585;-72
2022/03/27 11:44:23;;;;;;;18.65;5.35;;;14.60;74.90;;;;;;5084393;28;20036;-73
2022/03/27 11:46:55;;;;;;;23.83;5.50;;;14.80;73.90;;;;;;5103593;27;20054;-73
2022/03/27 11:49:23;;;;;;;18.58;5.20;;;14.90;71.80;;;;;;5081481;28;20040;-72
2022/03/27 11:52:08;;;;;;;19.50;6.28;;;14.90;70.50;;;;;;5085903;28;20054;-72
2022/03/27 11:54:35;;;;;;;19.05;5.25;;;15.10;72.20;;;;;;5085130;28;20051;-72
2022/03/27 11:57:02;;;;;;;22.80;5.47;;;15.10;73.50;;;;;;5068426;28;20502;-72
2022/03/27 11:59:31;;;;;;;20.42;5.93;;;15.10;73.00;;;;;;5068242;28;20044;-75
2022/03/27 12:02:00;;;;;;;19.83;5.75;;;15.20;71.00;;;;;;5086018;28;20054;-75
2022/03/27 12:04:27;;;;;;;21.92;6.03;;;15.30;71.80;;;;;;5068612;28;20560;-75
2022/03/27 12:06:59;;;;;;;20.27;5.07;;;15.40;72.20;;;;;;5086168;28;20059;-74
2022/03/27 12:09:31;;;;;;;22.00;5.57;;;15.50;70.90;;;;;;5068742;28;20162;-75
2022/03/27 12:12:13;;;;;;;23.98;5.75;;;15.50;70.60;;;;;;5085247;28;20051;-75
2022/03/27 12:14:54;;;;;;;19.05;4.82;;;15.50;70.60;;;;;;5084834;28;20051;-72
2022/03/27 12:17:22;;;;;;;24.73;5.55;;;15.50;69.80;;;;;;5099346;27;20058;-72
2022/03/27 12:19:58;;;;;;;23.60;5.72;;;15.60;66.10;;;;;;5068272;28;20042;-71
2022/03/27 12:22:32;;;;;;;16.98;5.60;;;15.60;66.10;;;;;;5067547;28;20287;-72
2022/03/27 12:24:59;;;;;;;19.35;4.38;;;15.60;64.20;;;;;;5068502;28;20051;-72
2022/03/27 12:30:13;;;;;;;20.35;5.53;;;15.60;63.40;;;;;;5083365;28;20050;-72
2022/03/27 12:32:38;;;;;;;17.13;4.68;;;15.70;63.00;;;;;;5068552;28;20557;-71
2022/03/27 12:35:06;;;;;;;20.38;5.47;;;15.70;63.90;;;;;;5068943;28;20579;-72
2022/03/27 12:37:35;;;;;;;21.08;5.43;;;15.70;63.70;;;;;;5085688;28;20052;-73
2022/03/27 12:40:05;;;;;;;17.47;4.47;;;15.80;63.70;;;;;;5068620;28;20044;-73
2022/03/27 12:42:43;;;;;;;19.95;4.85;;;15.90;64.70;;;;;;5084987;28;20293;-73
2022/03/27 12:45:32;;;;;;;19.90;5.20;;;16.10;63.80;;;;;;5083824;28;20410;-72
2022/03/27 12:48:14;;;;;;;19.42;4.68;;;16.30;59.80;;;;;;5080640;28;20135;-73
2022/03/27 12:50:42;;;;;;;15.02;4.72;;;16.30;57.20;;;;;;5079739;28;20584;-72
2022/03/27 12:53:19;;;;;;;15.48;4.78;;;16.20;58.60;;;;;;5063331;28;20190;-72
2022/03/27 12:56:01;;;;;;;19.02;4.88;;;16.10;58.80;;;;;;5080475;28;20497;-73
2022/03/27 12:58:33;;;;;;;17.27;4.55;;;16.20;58.20;;;;;;5063068;28;20039;-72
2022/03/27 13:01:17;;;;;;;13.93;3.80;;;16.10;59.70;;;;;;5061086;28;20039;-73
2022/03/27 13:04:08;;;;;;;16.42;3.70;;;16.20;59.20;;;;;;5081608;28;20054;-73